Main page
METAR-TAF:

METAR-TAF

Airports :

Paderborn Lippstadt Airport

Paderborn-Lippstadt, Germany

latitude: 51-37N, longitude: 008-37E, elevation: 213 m

Current weather observation

The report was made 38 minutes ago, at 00:50 UTC
Wind 7 kt from the East/Southeast
Temperature 3°C
Humidity 81%
Pressure 1031 hPa
Visibility 10 km or more
no clouds below 1500 m and no cumulonimbus

METAR: EDLP 170050Z 12007KT CAVOK 03/00 Q1031

Time: 02:28 (01:28 UTC)

Forecast

The report was made 2 hours and 28 minutes ago, at 23:00 UTC
Forecast valid from 17 at 00 UTC to 17 at 24 UTC
Wind 9 kt from the East/Southeast
Visibility 10 km or more
no clouds below 1500 m and no cumulonimbus

TAF: EDLP 162300Z 1700/1724 11009KT CAVOK

Weather observations and forecasts of more than 4000 airports (METAR and TAF reports).

The available stations are represented by yellow and red dots on the map.

Hover mouse over dot to see the name of the station.

Then click to see weather observations and forecasts.

To change the map : click on the green buttons with a black cross to zoom in, on the green button with a dash to zoom out, or on the green arrows for adjacent maps.


METAR-TAF: